Time;durP1;ratioP1;P1;durP2;ratioP2;P2;SDS_P1;SDS_P2;PMS_P1;PMS_P2;Temp;Humidity;BMP_temperature;BMP_pressure;BME280_temperature;BME280_humidity;BME280_pressure;Samples;Min_cycle;Max_cycle;Signal;HPM_P1;HPM_P2
2021/06/01 00:02:19;;;;;;;5.50;3.30;;;;;;;;;;5006604;28;20452;-84
2021/06/01 00:04:46;;;;;;;5.00;4.20;;;;;;;;;;5011592;28;20487;-82
2021/06/01 00:07:21;;;;;;;4.30;3.53;;;;;;;;;;5009041;28;20463;-84
2021/06/01 00:09:48;;;;;;;3.20;2.90;;;;;;;;;;5004070;28;20545;-84
2021/06/01 00:12:15;;;;;;;4.27;3.30;;;;;;;;;;5013504;28;20442;-83
2021/06/01 00:14:42;;;;;;;4.20;3.60;;;;;;;;;;5012303;28;20461;-82
2021/06/01 00:17:08;;;;;;;6.30;4.60;;;;;;;;;;5005652;28;20459;-84
2021/06/01 00:19:35;;;;;;;6.00;3.60;;;;;;;;;;5008648;28;21019;-84
2021/06/01 00:22:02;;;;;;;4.30;3.13;;;;;;;;;;5007763;28;20553;-83
2021/06/01 00:24:30;;;;;;;3.43;2.90;;;;;;;;;;5006663;28;20486;-84
2021/06/01 00:26:57;;;;;;;3.73;3.07;;;;;;;;;;5010849;28;20451;-85
2021/06/01 00:29:24;;;;;;;5.13;3.00;;;;;;;;;;5009890;28;20478;-84
2021/06/01 00:31:51;;;;;;;3.50;2.90;;;;;;;;;;5011411;28;20443;-85
2021/06/01 00:34:18;;;;;;;5.43;3.70;;;;;;;;;;5012055;28;20581;-82
2021/06/01 00:36:45;;;;;;;3.33;2.90;;;;;;;;;;5009445;28;20473;-84
2021/06/01 00:39:12;;;;;;;10.63;2.87;;;;;;;;;;5014978;28;20972;-83
2021/06/01 00:41:41;;;;;;;3.27;2.80;;;;;;;;;;5013283;28;20828;-85
2021/06/01 00:44:08;;;;;;;3.63;3.27;;;;;;;;;;5015597;28;20466;-85
2021/06/01 00:46:34;;;;;;;3.73;3.33;;;;;;;;;;5016025;28;20980;-84
2021/06/01 00:49:01;;;;;;;3.70;3.37;;;;;;;;;;5016985;28;20833;-83
2021/06/01 00:51:30;;;;;;;6.07;3.30;;;;;;;;;;5016897;28;20442;-82
2021/06/01 00:53:57;;;;;;;4.67;3.47;;;;;;;;;;5004009;28;20473;-84
2021/06/01 00:56:24;;;;;;;2.93;2.73;;;;;;;;;;5007943;28;20970;-84
2021/06/01 00:58:52;;;;;;;3.20;2.90;;;;;;;;;;5008170;28;20485;-83
2021/06/01 01:01:19;;;;;;;4.93;2.80;;;;;;;;;;5008864;28;20453;-86
2021/06/01 01:03:47;;;;;;;3.23;2.60;;;;;;;;;;5013059;28;20515;-83
2021/06/01 01:06:19;;;;;;;3.43;2.93;;;;;;;;;;5010709;28;20947;-84
2021/06/01 01:08:49;;;;;;;3.40;2.80;;;;;;;;;;5009999;28;21070;-82
2021/06/01 01:11:20;;;;;;;4.43;2.87;;;;;;;;;;5015703;28;20500;-84
2021/06/01 01:13:49;;;;;;;3.00;2.70;;;;;;;;;;5013406;28;20461;-82
2021/06/01 01:16:18;;;;;;;5.43;3.00;;;;;;;;;;5008241;28;20601;-84
2021/06/01 01:18:49;;;;;;;3.70;2.80;;;;;;;;;;5012429;28;20988;-85
2021/06/01 01:21:16;;;;;;;4.47;3.33;;;;;;;;;;5012509;28;20972;-82
2021/06/01 01:23:49;;;;;;;2.90;2.70;;;;;;;;;;5013058;28;20481;-84
2021/06/01 01:26:19;;;;;;;5.17;2.87;;;;;;;;;;5011888;28;20472;-83
2021/06/01 01:28:55;;;;;;;2.93;2.73;;;;;;;;;;5014605;28;20501;-83
2021/06/01 01:31:26;;;;;;;4.10;3.00;;;;;;;;;;5012769;28;20472;-83
2021/06/01 01:33:56;;;;;;;3.10;2.70;;;;;;;;;;5000462;28;20464;-83
2021/06/01 01:36:23;;;;;;;4.20;3.00;;;;;;;;;;5013420;28;20455;-82
2021/06/01 01:38:50;;;;;;;3.53;2.90;;;;;;;;;;5013729;28;20998;-83
2021/06/01 01:41:17;;;;;;;4.23;3.43;;;;;;;;;;5005193;28;20452;-83
2021/06/01 01:43:47;;;;;;;5.70;2.80;;;;;;;;;;5007589;28;20509;-82
2021/06/01 01:49:21;;;;;;;3.50;3.20;;;;;;;;;;5005334;28;20474;-83
2021/06/01 01:51:50;;;;;;;3.20;2.90;;;;;;;;;;5005844;28;20813;-83
2021/06/01 01:54:18;;;;;;;5.47;3.50;;;;;;;;;;5012346;28;20444;-82
2021/06/01 01:59:40;;;;;;;4.77;3.27;;;;;;;;;;5009472;28;20458;-82
2021/06/01 02:02:16;;;;;;;3.57;3.27;;;;;;;;;;5011402;28;20451;-84
2021/06/01 02:04:50;;;;;;;4.67;3.40;;;;;;;;;;5005303;28;20876;-83
2021/06/01 02:07:21;;;;;;;3.50;2.93;;;;;;;;;;5009607;28;20542;-84
2021/06/01 02:09:47;;;;;;;5.80;3.40;;;;;;;;;;5007633;28;21148;-81
2021/06/01 02:12:16;;;;;;;5.97;3.10;;;;;;;;;;5007201;28;20970;-83
2021/06/01 02:14:42;;;;;;;5.40;3.27;;;;;;;;;;5011259;28;20432;-81
2021/06/01 02:17:09;;;;;;;4.53;3.27;;;;;;;;;;5010698;28;20561;-85
2021/06/01 02:19:36;;;;;;;4.80;3.23;;;;;;;;;;5007292;28;20512;-82
2021/06/01 02:22:19;;;;;;;5.90;3.57;;;;;;;;;;5012953;28;20447;-81
2021/06/01 02:24:48;;;;;;;3.83;3.47;;;;;;;;;;5006849;28;20506;-82
2021/06/01 02:27:18;;;;;;;3.37;3.07;;;;;;;;;;5001988;28;20840;-84
2021/06/01 02:29:48;;;;;;;3.37;2.73;;;;;;;;;;5009925;28;20827;-80
2021/06/01 02:32:16;;;;;;;3.40;2.80;;;;;;;;;;5012287;28;20482;-81
2021/06/01 02:34:43;;;;;;;3.40;2.87;;;;;;;;;;5004056;28;21212;-82
2021/06/01 02:37:11;;;;;;;3.60;3.30;;;;;;;;;;5004418;28;20544;-83
2021/06/01 02:39:38;;;;;;;3.27;2.97;;;;;;;;;;5012636;28;20497;-82
2021/06/01 02:42:06;;;;;;;3.70;3.30;;;;;;;;;;5010673;28;20469;-84
2021/06/01 02:44:33;;;;;;;3.23;2.83;;;;;;;;;;5005905;28;20542;-83
2021/06/01 02:47:00;;;;;;;3.57;3.27;;;;;;;;;;5012361;28;20501;-82
2021/06/01 02:49:27;;;;;;;4.53;3.20;;;;;;;;;;5008204;28;20487;-83
2021/06/01 02:51:55;;;;;;;4.00;3.20;;;;;;;;;;5010944;28;20481;-82
2021/06/01 02:54:24;;;;;;;4.43;3.13;;;;;;;;;;5012992;28;20968;-84
2021/06/01 02:56:51;;;;;;;4.50;3.50;;;;;;;;;;5013060;28;20459;-81
2021/06/01 02:59:18;;;;;;;4.53;3.50;;;;;;;;;;5013966;28;20483;-83
2021/06/01 03:01:49;;;;;;;5.07;3.03;;;;;;;;;;5008346;28;20459;-83
2021/06/01 03:04:15;;;;;;;3.57;3.27;;;;;;;;;;5011480;28;20442;-82
2021/06/01 03:06:43;;;;;;;4.53;3.60;;;;;;;;;;5006082;28;20467;-82
2021/06/01 03:09:10;;;;;;;5.87;3.00;;;;;;;;;;5001124;28;20494;-82
2021/06/01 03:11:40;;;;;;;5.57;3.60;;;;;;;;;;5012759;28;20439;-82
2021/06/01 03:14:07;;;;;;;4.93;3.00;;;;;;;;;;5005198;28;20858;-82
2021/06/01 03:16:34;;;;;;;4.03;3.20;;;;;;;;;;5009312;28;20454;-83
2021/06/01 03:19:01;;;;;;;5.30;3.20;;;;;;;;;;5014455;28;20459;-83
2021/06/01 03:21:28;;;;;;;6.17;3.80;;;;;;;;;;5009126;28;20459;-84
2021/06/01 03:23:55;;;;;;;3.90;3.40;;;;;;;;;;5003179;28;20585;-84
2021/06/01 03:26:22;;;;;;;4.03;3.63;;;;;;;;;;5000808;28;20471;-83
2021/06/01 03:28:50;;;;;;;5.50;3.60;;;;;;;;;;5010029;28;20486;-83
2021/06/01 03:31:16;;;;;;;5.27;3.97;;;;;;;;;;5011129;28;20824;-82
2021/06/01 03:33:44;;;;;;;5.50;3.57;;;;;;;;;;5002048;28;20652;-83
2021/06/01 03:36:11;;;;;;;7.60;3.50;;;;;;;;;;5004426;28;20466;-83
2021/06/01 03:38:38;;;;;;;7.30;3.70;;;;;;;;;;5011154;28;20474;-85
2021/06/01 03:41:05;;;;;;;7.00;3.40;;;;;;;;;;5006959;28;20459;-82
2021/06/01 03:43:34;;;;;;;4.20;3.70;;;;;;;;;;5006797;28;20467;-81
2021/06/01 03:46:02;;;;;;;6.23;4.27;;;;;;;;;;5011550;28;20447;-83
2021/06/01 03:48:29;;;;;;;3.80;3.40;;;;;;;;;;5009716;28;20490;-84
2021/06/01 03:50:56;;;;;;;5.60;3.90;;;;;;;;;;5011614;28;20447;-82
2021/06/01 03:53:23;;;;;;;4.67;3.60;;;;;;;;;;5008934;28;20466;-80
2021/06/01 03:55:49;;;;;;;4.33;3.93;;;;;;;;;;5009015;28;20447;-83
2021/06/01 03:58:16;;;;;;;4.13;3.50;;;;;;;;;;5008910;28;20482;-84
2021/06/01 04:00:43;;;;;;;4.20;3.40;;;;;;;;;;5005819;28;20462;-83
2021/06/01 04:03:11;;;;;;;6.17;4.37;;;;;;;;;;5011338;28;20454;-84
2021/06/01 04:05:38;;;;;;;4.43;3.70;;;;;;;;;;5009855;28;20548;-82
2021/06/01 04:08:06;;;;;;;5.07;4.00;;;;;;;;;;5009970;28;20483;-82
2021/06/01 04:10:33;;;;;;;5.67;3.80;;;;;;;;;;5008090;28;20475;-82
2021/06/01 04:12:59;;;;;;;4.23;3.83;;;;;;;;;;5000092;28;20882;-85
2021/06/01 04:15:27;;;;;;;5.00;3.57;;;;;;;;;;5008970;28;20451;-82
2021/06/01 04:17:53;;;;;;;4.00;3.30;;;;;;;;;;5002752;28;20463;-82
2021/06/01 04:20:22;;;;;;;4.80;3.40;;;;;;;;;;5008710;28;20473;-84
2021/06/01 04:22:50;;;;;;;4.17;3.50;;;;;;;;;;5004060;28;21033;-81
2021/06/01 04:25:18;;;;;;;5.17;3.57;;;;;;;;;;4998994;28;20451;-82
2021/06/01 04:27:44;;;;;;;5.67;3.97;;;;;;;;;;4999463;28;20467;-82
2021/06/01 04:30:12;;;;;;;5.23;3.63;;;;;;;;;;5006014;28;20482;-84
2021/06/01 04:32:39;;;;;;;3.77;3.30;;;;;;;;;;5010762;28;20455;-83
2021/06/01 04:35:06;;;;;;;4.00;3.27;;;;;;;;;;5009435;28;20463;-82
2021/06/01 04:37:34;;;;;;;4.13;3.10;;;;;;;;;;5011578;28;20975;-82
2021/06/01 04:40:01;;;;;;;4.33;3.73;;;;;;;;;;5003761;28;20490;-82
2021/06/01 04:42:28;;;;;;;3.90;3.50;;;;;;;;;;4998986;28;21222;-81
2021/06/01 04:44:54;;;;;;;3.70;3.40;;;;;;;;;;5009968;28;20450;-81
2021/06/01 04:47:21;;;;;;;4.10;3.30;;;;;;;;;;5010698;28;20448;-82
2021/06/01 04:49:48;;;;;;;4.80;3.53;;;;;;;;;;5003809;28;20492;-81
2021/06/01 04:52:17;;;;;;;9.90;3.47;;;;;;;;;;5000282;28;20550;-82
2021/06/01 04:54:45;;;;;;;4.20;3.47;;;;;;;;;;5008753;28;20423;-81
2021/06/01 04:57:12;;;;;;;4.70;3.17;;;;;;;;;;5010213;28;20453;-81
2021/06/01 04:59:39;;;;;;;4.13;3.70;;;;;;;;;;5004701;28;20474;-81
2021/06/01 05:02:06;;;;;;;4.97;3.93;;;;;;;;;;5010556;28;20526;-82
2021/06/01 05:04:35;;;;;;;5.53;3.40;;;;;;;;;;5008561;28;20471;-81
2021/06/01 05:07:02;;;;;;;3.77;3.30;;;;;;;;;;5005201;28;20426;-82
2021/06/01 05:09:30;;;;;;;4.33;3.37;;;;;;;;;;5008493;28;20450;-82
2021/06/01 05:11:58;;;;;;;3.93;3.40;;;;;;;;;;5004105;28;20498;-83
2021/06/01 05:14:25;;;;;;;3.50;3.20;;;;;;;;;;5010513;28;20424;-82
2021/06/01 05:16:52;;;;;;;5.13;3.53;;;;;;;;;;5008814;28;20470;-84
2021/06/01 05:19:18;;;;;;;5.20;3.30;;;;;;;;;;5013547;28;20552;-82
2021/06/01 05:21:46;;;;;;;3.30;3.00;;;;;;;;;;5014548;28;20445;-83
2021/06/01 05:24:13;;;;;;;3.63;2.90;;;;;;;;;;5014601;28;20500;-82
2021/06/01 05:26:40;;;;;;;3.67;3.37;;;;;;;;;;5016163;28;20450;-83
2021/06/01 05:29:08;;;;;;;4.30;3.53;;;;;;;;;;5022786;28;20474;-87
2021/06/01 05:31:44;;;;;;;4.63;2.83;;;;;;;;;;5011802;28;20439;-78
2021/06/01 05:34:12;;;;;;;4.43;3.00;;;;;;;;;;5011554;28;20489;-80
2021/06/01 05:36:39;;;;;;;3.47;3.17;;;;;;;;;;5013283;28;20451;-80
2021/06/01 05:39:07;;;;;;;3.30;3.00;;;;;;;;;;5013489;28;20837;-80
2021/06/01 05:41:34;;;;;;;7.00;3.03;;;;;;;;;;5012601;28;21131;-81
2021/06/01 05:44:01;;;;;;;4.50;3.30;;;;;;;;;;5013754;28;20948;-80
2021/06/01 05:46:29;;;;;;;4.63;3.00;;;;;;;;;;5012062;28;20444;-80
2021/06/01 05:48:58;;;;;;;2.77;2.40;;;;;;;;;;5010184;28;20702;-78
2021/06/01 05:51:30;;;;;;;4.80;3.33;;;;;;;;;;5013730;28;20442;-81
2021/06/01 05:53:57;;;;;;;4.10;3.10;;;;;;;;;;5013514;28;20449;-78
2021/06/01 05:56:24;;;;;;;3.20;2.73;;;;;;;;;;5006768;28;20451;-83
2021/06/01 05:58:51;;;;;;;4.73;3.07;;;;;;;;;;5015310;28;20485;-81
2021/06/01 06:01:18;;;;;;;3.47;3.03;;;;;;;;;;5015561;28;20453;-87
2021/06/01 06:03:46;;;;;;;3.83;2.93;;;;;;;;;;5005399;28;20497;-81
2021/06/01 06:06:13;;;;;;;3.67;2.83;;;;;;;;;;5003892;28;21010;-83
2021/06/01 06:08:40;;;;;;;3.67;2.70;;;;;;;;;;5002498;28;20494;-79
2021/06/01 06:11:07;;;;;;;3.53;3.10;;;;;;;;;;5012159;28;20480;-83
2021/06/01 06:13:34;;;;;;;5.20;3.60;;;;;;;;;;5010839;28;20463;-79
2021/06/01 06:16:01;;;;;;;2.77;2.57;;;;;;;;;;5002093;28;20932;-78
2021/06/01 06:18:30;;;;;;;6.33;3.27;;;;;;;;;;5014487;28;20526;-79
2021/06/01 06:21:00;;;;;;;3.87;2.77;;;;;;;;;;5012278;28;20463;-80
2021/06/01 06:23:27;;;;;;;2.80;2.50;;;;;;;;;;5004487;28;20489;-79
2021/06/01 06:25:54;;;;;;;2.97;2.67;;;;;;;;;;5012762;28;20453;-79
2021/06/01 06:28:21;;;;;;;3.80;2.97;;;;;;;;;;5011505;28;20486;-83
2021/06/01 06:30:48;;;;;;;3.63;3.00;;;;;;;;;;5002289;28;20528;-78
2021/06/01 06:33:15;;;;;;;4.77;3.53;;;;;;;;;;5013147;28;20482;-82
2021/06/01 06:35:42;;;;;;;4.90;2.60;;;;;;;;;;5015099;28;20505;-80
2021/06/01 06:38:10;;;;;;;4.27;3.00;;;;;;;;;;5008995;28;20465;-83
2021/06/01 06:40:37;;;;;;;2.90;2.70;;;;;;;;;;5015512;28;20811;-81
2021/06/01 06:43:04;;;;;;;4.70;2.77;;;;;;;;;;5012599;28;20463;-83
2021/06/01 06:45:32;;;;;;;4.87;3.00;;;;;;;;;;5000927;28;20470;-81
2021/06/01 06:48:05;;;;;;;3.50;2.80;;;;;;;;;;5009470;28;20528;-83
2021/06/01 06:50:33;;;;;;;6.03;3.30;;;;;;;;;;5012913;28;20808;-83
2021/06/01 06:52:59;;;;;;;3.17;2.83;;;;;;;;;;5007071;28;20520;-81
2021/06/01 06:55:28;;;;;;;3.33;3.03;;;;;;;;;;5013097;28;20450;-80
2021/06/01 06:57:54;;;;;;;4.23;2.40;;;;;;;;;;5013368;28;20474;-80
2021/06/01 07:00:23;;;;;;;5.47;3.17;;;;;;;;;;5003848;28;20486;-79
2021/06/01 07:02:50;;;;;;;4.27;3.10;;;;;;;;;;5014915;28;20447;-80
2021/06/01 07:05:18;;;;;;;3.80;3.00;;;;;;;;;;5014942;28;20447;-80
2021/06/01 07:07:48;;;;;;;12.33;3.87;;;;;;;;;;4999463;28;20494;-80
2021/06/01 07:10:15;;;;;;;2.57;2.37;;;;;;;;;;5000445;28;20487;-81
2021/06/01 07:12:44;;;;;;;2.50;2.30;;;;;;;;;;5012388;28;20454;-82
2021/06/01 07:15:14;;;;;;;2.93;2.50;;;;;;;;;;5012572;28;20446;-82
2021/06/01 07:17:44;;;;;;;3.27;2.97;;;;;;;;;;5004850;28;20455;-78
2021/06/01 07:20:13;;;;;;;3.80;2.70;;;;;;;;;;5010810;28;20471;-78
2021/06/01 07:22:40;;;;;;;3.80;3.20;;;;;;;;;;5009855;28;20808;-79
2021/06/01 07:25:08;;;;;;;3.03;2.50;;;;;;;;;;5000565;28;20470;-80
2021/06/01 07:27:35;;;;;;;3.60;3.27;;;;;;;;;;5017550;28;20446;-81
2021/06/01 07:30:03;;;;;;;3.63;2.73;;;;;;;;;;5031926;28;20905;-78
2021/06/01 07:32:30;;;;;;;7.87;2.97;;;;;;;;;;5010045;28;20551;-78
2021/06/01 07:35:01;;;;;;;2.93;2.63;;;;;;;;;;5003349;28;20467;-78
2021/06/01 07:37:28;;;;;;;3.10;2.33;;;;;;;;;;5012969;28;20443;-80
2021/06/01 07:39:55;;;;;;;4.97;2.70;;;;;;;;;;5020319;28;20474;-78
2021/06/01 07:42:21;;;;;;;3.57;2.83;;;;;;;;;;5001001;28;20451;-80
2021/06/01 07:44:48;;;;;;;3.53;2.90;;;;;;;;;;5010756;28;20465;-81
2021/06/01 07:47:16;;;;;;;4.83;3.13;;;;;;;;;;5005800;28;20451;-81
2021/06/01 07:49:43;;;;;;;2.80;2.50;;;;;;;;;;5008564;28;20815;-82
2021/06/01 07:52:10;;;;;;;2.53;2.33;;;;;;;;;;5004178;28;20463;-77
2021/06/01 07:54:37;;;;;;;2.80;2.60;;;;;;;;;;5008217;28;20481;-81
2021/06/01 07:57:04;;;;;;;4.70;2.50;;;;;;;;;;4991826;28;20895;-80
2021/06/01 07:59:31;;;;;;;2.50;2.30;;;;;;;;;;4996028;28;20561;-81
2021/06/01 08:01:57;;;;;;;2.80;2.30;;;;;;;;;;5008583;28;20462;-80
2021/06/01 08:04:25;;;;;;;5.10;2.83;;;;;;;;;;5009188;28;20435;-79
2021/06/01 08:06:52;;;;;;;2.47;2.27;;;;;;;;;;5006040;28;20960;-79
2021/06/01 08:09:19;;;;;;;5.03;2.43;;;;;;;;;;5001233;28;20495;-77
2021/06/01 08:11:46;;;;;;;3.97;2.77;;;;;;;;;;5001157;28;20554;-77
2021/06/01 08:14:13;;;;;;;3.10;2.80;;;;;;;;;;5012007;28;20505;-79
2021/06/01 08:16:43;;;;;;;2.90;2.60;;;;;;;;;;5010552;28;20439;-78
2021/06/01 08:19:11;;;;;;;3.23;2.67;;;;;;;;;;5008199;28;20567;-79
2021/06/01 08:21:47;;;;;;;6.03;2.80;;;;;;;;;;5010804;28;20545;-79
2021/06/01 08:24:14;;;;;;;2.43;2.23;;;;;;;;;;5003437;28;21002;-76
2021/06/01 08:26:41;;;;;;;4.43;2.77;;;;;;;;;;5010152;28;20815;-77
2021/06/01 08:29:08;;;;;;;3.53;2.60;;;;;;;;;;5019755;28;20498;-79
2021/06/01 08:31:35;;;;;;;2.60;2.33;;;;;;;;;;5008319;28;20458;-76
2021/06/01 08:34:01;;;;;;;3.17;2.87;;;;;;;;;;5008839;28;20928;-78
2021/06/01 08:36:28;;;;;;;2.73;2.50;;;;;;;;;;5009521;28;20565;-78
2021/06/01 08:38:57;;;;;;;4.37;2.30;;;;;;;;;;4991281;28;20459;-78
2021/06/01 08:41:23;;;;;;;2.33;2.17;;;;;;;;;;5013366;28;20791;-79
2021/06/01 08:43:51;;;;;;;3.30;2.30;;;;;;;;;;5005233;28;20461;-79
2021/06/01 08:46:22;;;;;;;2.53;2.30;;;;;;;;;;5008849;28;20455;-78
2021/06/01 08:48:49;;;;;;;2.83;2.40;;;;;;;;;;5005665;28;20859;-77
2021/06/01 08:51:20;;;;;;;2.67;2.47;;;;;;;;;;5000805;28;20455;-78
2021/06/01 08:53:47;;;;;;;2.70;2.50;;;;;;;;;;5009592;28;20851;-78
2021/06/01 08:56:15;;;;;;;2.47;2.27;;;;;;;;;;5009582;28;20459;-76
2021/06/01 08:58:43;;;;;;;2.60;2.20;;;;;;;;;;5014758;28;20486;-78
2021/06/01 09:01:10;;;;;;;2.10;2.00;;;;;;;;;;5012881;28;20443;-80
2021/06/01 09:03:37;;;;;;;4.87;2.20;;;;;;;;;;5014250;28;20473;-80
2021/06/01 09:06:13;;;;;;;2.40;2.20;;;;;;;;;;5016003;28;20512;-79
2021/06/01 09:08:49;;;;;;;2.93;2.10;;;;;;;;;;5013045;28;20489;-78
2021/06/01 09:11:32;;;;;;;2.47;2.20;;;;;;;;;;5032066;28;20545;-79
2021/06/01 09:22:02;;;;;;;6.30;2.23;;;;;;;;;;5009459;28;20455;-80
2021/06/01 09:24:29;;;;;;;3.30;2.60;;;;;;;;;;5016214;28;20482;-80
2021/06/01 09:27:04;;;;;;;4.80;2.93;;;;;;;;;;5033716;28;20552;-80
2021/06/01 09:29:32;;;;;;;2.40;2.20;;;;;;;;;;5006500;28;20501;-78
2021/06/01 09:32:07;;;;;;;2.70;2.50;;;;;;;;;;5013700;28;20450;-80
2021/06/01 09:34:36;;;;;;;2.63;2.43;;;;;;;;;;5014567;28;20498;-78
2021/06/01 09:37:15;;;;;;;3.07;2.73;;;;;;;;;;5009551;28;20462;-80
2021/06/01 09:39:42;;;;;;;3.10;2.27;;;;;;;;;;5021190;28;20570;-80
2021/06/01 09:45:04;;;;;;;3.03;2.73;;;;;;;;;;5099169;27;20641;-78
2021/06/01 09:47:46;;;;;;;4.10;2.93;;;;;;;;;;5088576;28;20442;-79
2021/06/01 09:50:20;;;;;;;3.00;2.60;;;;;;;;;;5084587;28;20569;-78
2021/06/01 09:52:48;;;;;;;2.97;2.30;;;;;;;;;;5091240;28;20549;-80
2021/06/01 09:55:16;;;;;;;3.00;2.30;;;;;;;;;;5094317;28;20455;-79
2021/06/01 09:57:43;;;;;;;2.97;2.37;;;;;;;;;;5089183;28;20462;-80
2021/06/01 10:00:12;;;;;;;2.47;2.27;;;;;;;;;;5086600;28;20458;-78
2021/06/01 10:02:39;;;;;;;2.53;2.33;;;;;;;;;;5105906;28;21787;-78
2021/06/01 10:05:08;;;;;;;3.10;2.80;;;;;;;;;;5088415;28;20948;-79
2021/06/01 10:07:35;;;;;;;4.10;3.23;;;;;;;;;;5088281;28;20458;-79
2021/06/01 10:10:12;;;;;;;3.50;2.33;;;;;;;;;;5105222;28;20586;-78
2021/06/01 10:12:39;;;;;;;3.27;2.90;;;;;;;;;;5109421;28;20462;-79
2021/06/01 10:15:07;;;;;;;3.10;2.43;;;;;;;;;;5102673;28;20453;-79
2021/06/01 10:17:35;;;;;;;3.03;2.50;;;;;;;;;;5105088;28;20450;-78
2021/06/01 10:20:02;;;;;;;3.43;2.53;;;;;;;;;;5096314;28;20842;-78
2021/06/01 10:22:29;;;;;;;2.80;2.47;;;;;;;;;;5096529;28;20450;-78
2021/06/01 10:24:56;;;;;;;3.50;3.07;;;;;;;;;;5108296;28;20494;-81
2021/06/01 10:27:22;;;;;;;4.93;2.67;;;;;;;;;;5094077;28;20808;-82
2021/06/01 10:29:49;;;;;;;2.50;2.30;;;;;;;;;;5088846;28;20598;-80
2021/06/01 10:32:16;;;;;;;5.90;2.73;;;;;;;;;;5101212;28;20511;-79
2021/06/01 10:34:44;;;;;;;4.20;3.37;;;;;;;;;;5106859;28;20443;-78
2021/06/01 10:42:39;;;;;;;3.60;2.67;;;;;;;;;;5088518;28;20451;-79
2021/06/01 10:50:36;;;;;;;3.07;2.73;;;;;;;;;;5097095;28;21180;-79
2021/06/01 10:53:08;;;;;;;3.33;2.67;;;;;;;;;;5070844;28;20451;-79
2021/06/01 10:55:50;;;;;;;2.80;2.57;;;;;;;;;;5086287;28;20486;-78
2021/06/01 10:58:19;;;;;;;3.20;2.97;;;;;;;;;;5073962;28;20448;-77
2021/06/01 11:03:27;;;;;;;3.17;2.87;;;;;;;;;;5048577;28;20821;-79
2021/06/01 11:06:06;;;;;;;2.87;2.67;;;;;;;;;;5051922;28;20452;-80
2021/06/01 11:08:34;;;;;;;4.70;2.60;;;;;;;;;;5065915;28;20806;-79
2021/06/01 11:11:20;;;;;;;3.10;2.50;;;;;;;;;;5048907;28;20444;-79
2021/06/01 11:13:47;;;;;;;1.93;1.80;;;;;;;;;;5054595;28;20436;-79
2021/06/01 11:16:14;;;;;;;2.60;2.37;;;;;;;;;;5058294;28;20456;-78
2021/06/01 11:18:46;;;;;;;2.70;2.50;;;;;;;;;;5059093;28;20472;-79
2021/06/01 11:21:20;;;;;;;3.07;2.30;;;;;;;;;;5070888;28;20437;-78
2021/06/01 11:24:11;;;;;;;2.73;2.53;;;;;;;;;;5041249;28;20484;-78
2021/06/01 11:35:16;;;;;;;5.07;2.50;;;;;;;;;;5054629;28;20577;-77
2021/06/01 11:37:54;;;;;;;7.40;2.50;;;;;;;;;;5075618;28;21253;-77
2021/06/01 11:40:25;;;;;;;3.43;2.47;;;;;;;;;;5093771;28;20484;-79
2021/06/01 11:43:02;;;;;;;2.50;2.30;;;;;;;;;;5079823;28;20463;-78
2021/06/01 11:45:39;;;;;;;2.50;2.30;;;;;;;;;;5090186;28;20503;-79
2021/06/01 11:48:10;;;;;;;2.83;2.30;;;;;;;;;;5095141;28;20447;-81
2021/06/01 11:53:19;;;;;;;2.50;2.30;;;;;;;;;;5084722;28;20444;-79
2021/06/01 11:55:46;;;;;;;3.90;3.10;;;;;;;;;;5089151;28;20543;-79
2021/06/01 12:03:52;;;;;;;3.20;2.60;;;;;;;;;;5090194;28;20467;-79
2021/06/01 12:11:56;;;;;;;3.47;2.00;;;;;;;;;;5081270;28;20548;-79
2021/06/01 12:17:07;;;;;;;3.07;2.53;;;;;;;;;;5085923;28;20443;-78
2021/06/01 12:17:17;;;;;;;2.57;2.37;;;;;;;;;;5077279;28;20435;-79
2021/06/01 12:19:44;;;;;;;3.00;2.37;;;;;;;;;;5077640;28;20462;-79
2021/06/01 12:22:11;;;;;;;2.73;2.53;;;;;;;;;;5072441;28;20432;-78
2021/06/01 12:24:42;;;;;;;2.10;1.97;;;;;;;;;;5082948;28;20501;-80
2021/06/01 12:27:22;;;;;;;3.27;2.97;;;;;;;;;;5079819;28;20454;-77
2021/06/01 12:32:31;;;;;;;4.10;2.67;;;;;;;;;;5086795;28;20813;-80
2021/06/01 12:35:06;;;;;;;2.33;2.13;;;;;;;;;;5091841;28;20443;-77
2021/06/01 12:43:05;;;;;;;2.70;2.33;;;;;;;;;;5088115;28;20541;-77
2021/06/01 12:45:41;;;;;;;3.90;2.97;;;;;;;;;;5084805;28;20471;-79
2021/06/01 13:12:04;;;;;;;3.27;2.80;;;;;;;;;;5074768;28;20567;-79
2021/06/01 13:13:19;;;;;;;3.30;2.33;;;;;;;;;;5094887;28;20463;-80
2021/06/01 13:21:06;;;;;;;2.50;2.30;;;;;;;;;;5065473;28;20460;-81
2021/06/01 13:31:57;;;;;;;2.77;2.10;;;;;;;;;;5087261;28;20458;-78
2021/06/01 13:37:19;;;;;;;2.53;2.33;;;;;;;;;;5071601;28;20436;-79
2021/06/01 13:39:50;;;;;;;3.67;2.30;;;;;;;;;;5073916;28;20471;-81
2021/06/01 13:47:46;;;;;;;4.60;2.67;;;;;;;;;;5057722;28;20457;-80
2021/06/01 13:50:18;;;;;;;2.63;2.43;;;;;;;;;;5070397;28;20479;-80
2021/06/01 13:52:56;;;;;;;2.40;2.20;;;;;;;;;;5072707;28;20456;-78
2021/06/01 13:55:28;;;;;;;3.23;2.57;;;;;;;;;;5054815;28;20449;-80
2021/06/01 13:58:21;;;;;;;2.40;2.20;;;;;;;;;;5053135;28;20871;-79
2021/06/01 14:00:57;;;;;;;2.80;2.60;;;;;;;;;;5055269;28;20456;-78
2021/06/01 14:30:19;;;;;;;2.60;2.40;;;;;;;;;;5052733;28;20498;-78
2021/06/01 14:38:17;;;;;;;2.97;2.53;;;;;;;;;;5058075;28;20477;-80
2021/06/01 15:10:49;;;;;;;2.80;2.37;;;;;;;;;;5061546;28;20464;-77
2021/06/01 15:24:40;;;;;;;3.00;2.70;;;;;;;;;;5060776;28;20557;-77
2021/06/01 15:32:33;;;;;;;5.37;2.10;;;;;;;;;;5055096;28;20826;-78
2021/06/01 15:48:50;;;;;;;4.30;2.53;;;;;;;;;;5076697;28;20477;-80
2021/06/01 15:54:28;;;;;;;2.30;2.13;;;;;;;;;;5073922;28;20503;-77
2021/06/01 16:13:19;;;;;;;2.73;2.43;;;;;;;;;;5078010;28;20798;-77
2021/06/01 16:29:35;;;;;;;3.20;2.60;;;;;;;;;;5070961;28;20519;-79
2021/06/01 16:32:15;;;;;;;2.83;2.43;;;;;;;;;;5082683;28;20455;-78
2021/06/01 16:43:04;;;;;;;2.33;2.13;;;;;;;;;;5065609;28;20971;-82
2021/06/01 17:04:35;;;;;;;2.70;2.47;;;;;;;;;;5072777;28;20480;-78
2021/06/01 17:07:07;;;;;;;3.37;2.80;;;;;;;;;;5086127;28;20444;-81
2021/06/01 17:12:19;;;;;;;3.00;2.37;;;;;;;;;;5092197;28;20469;-82
2021/06/01 17:14:47;;;;;;;5.50;2.93;;;;;;;;;;5091482;28;20500;-80
2021/06/01 17:17:16;;;;;;;3.40;3.07;;;;;;;;;;5069355;28;20652;-80
2021/06/01 17:22:38;;;;;;;2.37;2.17;;;;;;;;;;5084587;28;20451;-79
2021/06/01 17:30:46;;;;;;;2.70;2.50;;;;;;;;;;5081310;28;20475;-79
2021/06/01 17:35:56;;;;;;;3.70;3.10;;;;;;;;;;5067398;28;21233;-81
2021/06/01 17:38:24;;;;;;;2.60;2.40;;;;;;;;;;5053271;28;20451;-83
2021/06/01 17:40:54;;;;;;;3.70;2.63;;;;;;;;;;5083519;28;20459;-83
2021/06/01 17:43:23;;;;;;;2.70;2.50;;;;;;;;;;5072499;28;20566;-82
2021/06/01 17:45:53;;;;;;;3.00;2.47;;;;;;;;;;5068801;28;20468;-79
2021/06/01 17:48:31;;;;;;;3.30;2.33;;;;;;;;;;5063237;28;20812;-83
2021/06/01 17:50:58;;;;;;;2.80;2.60;;;;;;;;;;5063885;28;20537;-79
2021/06/01 17:53:25;;;;;;;3.30;2.57;;;;;;;;;;5059557;28;20457;-81
2021/06/01 17:55:52;;;;;;;2.87;2.43;;;;;;;;;;5059382;28;20460;-80
2021/06/01 17:58:19;;;;;;;2.40;2.20;;;;;;;;;;5057820;28;20572;-81
2021/06/01 18:00:46;;;;;;;2.60;2.33;;;;;;;;;;5079420;28;20499;-82
2021/06/01 18:03:15;;;;;;;2.90;2.70;;;;;;;;;;5081518;28;20528;-81
2021/06/01 18:05:44;;;;;;;3.70;2.97;;;;;;;;;;5080271;28;20491;-82
2021/06/01 18:08:17;;;;;;;4.70;2.37;;;;;;;;;;5078664;28;20801;-79
2021/06/01 18:40:48;;;;;;;3.20;2.30;;;;;;;;;;5097420;28;20558;-79
2021/06/01 18:41:30;;;;;;;2.87;2.63;;;;;;;;;;5090764;28;20476;-79
2021/06/01 19:00:19;;;;;;;2.90;2.70;;;;;;;;;;5104662;28;20573;-80
2021/06/01 19:22:19;;;;;;;3.50;2.70;;;;;;;;;;5098182;28;20536;-82
2021/06/01 19:24:43;;;;;;;5.43;2.90;;;;;;;;;;5080365;28;21142;-80
2021/06/01 19:42:18;;;;;;;3.30;2.73;;;;;;;;;;5089792;28;20459;-81
2021/06/01 19:51:46;;;;;;;3.83;3.40;;;;;;;;;;5094055;28;20471;-81
2021/06/01 19:54:13;;;;;;;4.80;3.53;;;;;;;;;;5084827;28;20579;-80
2021/06/01 19:56:41;;;;;;;4.37;3.47;;;;;;;;;;5076599;28;20566;-80
2021/06/01 19:59:08;;;;;;;3.23;2.93;;;;;;;;;;5087549;28;20514;-83
2021/06/01 20:01:35;;;;;;;3.50;2.90;;;;;;;;;;5086924;28;20805;-82
2021/06/01 20:04:02;;;;;;;5.03;3.67;;;;;;;;;;5071239;28;21174;-81
2021/06/01 20:06:29;;;;;;;4.23;3.10;;;;;;;;;;5079410;28;20479;-81
2021/06/01 20:09:00;;;;;;;4.23;3.33;;;;;;;;;;5090917;28;20475;-81
2021/06/01 20:11:27;;;;;;;4.40;3.07;;;;;;;;;;5083535;28;20612;-80
2021/06/01 20:13:54;;;;;;;3.67;3.10;;;;;;;;;;5087476;28;20460;-81
2021/06/01 20:16:41;;;;;;;4.47;3.37;;;;;;;;;;5084542;28;20514;-78
2021/06/01 20:19:08;;;;;;;5.63;4.57;;;;;;;;;;5044749;28;20568;-80
2021/06/01 20:21:37;;;;;;;5.70;5.10;;;;;;;;;;5045090;28;20551;-82
2021/06/01 20:24:07;;;;;;;5.80;5.20;;;;;;;;;;5045870;28;20457;-82
2021/06/01 20:26:35;;;;;;;5.67;4.93;;;;;;;;;;5036961;28;20491;-88
2021/06/01 20:29:05;;;;;;;5.77;4.60;;;;;;;;;;5045372;28;20477;-84
2021/06/01 20:31:33;;;;;;;5.23;4.27;;;;;;;;;;5041985;28;20456;-85
2021/06/01 20:34:01;;;;;;;4.77;4.37;;;;;;;;;;5029837;28;20445;-84
2021/06/01 20:36:28;;;;;;;6.33;3.87;;;;;;;;;;5054726;28;20466;-84
2021/06/01 20:39:00;;;;;;;5.17;4.30;;;;;;;;;;5077602;28;20472;-86
2021/06/01 20:41:31;;;;;;;5.17;3.93;;;;;;;;;;5086483;28;20452;-85
2021/06/01 20:43:58;;;;;;;3.90;3.40;;;;;;;;;;5083258;28;20464;-85
2021/06/01 20:46:25;;;;;;;3.90;3.50;;;;;;;;;;5072718;28;20464;-87
2021/06/01 20:48:52;;;;;;;4.53;3.40;;;;;;;;;;5091312;28;21029;-83
2021/06/01 20:51:19;;;;;;;3.57;3.27;;;;;;;;;;5074861;28;20472;-84
2021/06/01 20:53:46;;;;;;;5.33;3.83;;;;;;;;;;5083007;28;20490;-88